KMLS

Frank Wiley Field Airport

Miles City, Montana, USA
METAR KMLS 182053Z AUTO 27020G24KT 10SM -RA CLR 22/14 A3001 RMK AO2 PK WND 27031/2002 SLP145 P0000 60000 T02170139 53000
Observed Flight Rules
Aug-18 @ 20:53 UTC (60 minutes ago) Visual Flight Rules
Wind Visibility Clouds Conditions
270° at 20 knots
 Gusting to 24 knots
10 miles
  • Clear skies
  • Light Rain
Temperatures Readings Precipitation
Current 22°C / 72°F
Dewpoint 14°C / 57°F
Humidity 61%
Altimeter 30.01" Hg
Pressure 1014.5 hPa
Elevation 801
Current Rain 0.005
METAR KMLS 182053Z AUTO 27020G24KT 10SM -RA CLR 22/14 A3001 RMK AO2 PK WND 27031/2002 SLP145 P0000 60000 T02170139 53000
Observed Flight Rules
Aug-18 @ 20:53 UTC
(60 minutes ago)
VFR
Wind Visibility
270° at 20 knots
 Gusting to 24 knots
10 miles
Clouds
  • Clear skies
Conditions
  • Light Rain
Temperature Dewpoint
22°C / 72°F 14°C / 57°F
Humidity Altimeter Pressure
61% 30.01" Hg 1014.5 hPa
Current Rain
0.005